Time;durP1;ratioP1;P1;durP2;ratioP2;P2;SDS_P1;SDS_P2;PMS_P1;PMS_P2;Temp;Humidity;BMP_temperature;BMP_pressure;BME280_temperature;BME280_humidity;BME280_pressure;Samples;Min_cycle;Max_cycle;Signal;HPM_P1;HPM_P2
2022/09/14 00:00:41;;;;;;;7.13;1.83;;;13.90;99.90;;;;;;5136610;27;20045;-90
2022/09/14 00:03:06;;;;;;;7.93;1.60;;;14.00;99.90;;;;;;5136435;27;20070;-91
2022/09/14 00:05:34;;;;;;;7.72;1.85;;;13.90;99.90;;;;;;5136641;27;20064;-90
2022/09/14 00:08:00;;;;;;;5.22;1.50;;;13.90;99.90;;;;;;5136664;27;20495;-90
2022/09/14 00:10:26;;;;;;;9.93;2.75;;;13.80;99.90;;;;;;5136506;27;20035;-90
2022/09/14 00:12:51;;;;;;;9.82;3.30;;;13.80;99.90;;;;;;5118516;27;20066;-90
2022/09/14 00:15:17;;;;;;;6.82;2.20;;;13.80;99.90;;;;;;5136467;27;20039;-90
2022/09/14 00:17:43;;;;;;;6.22;2.00;;;13.80;99.90;;;;;;5136391;27;20042;-90
2022/09/14 00:20:09;;;;;;;6.25;2.28;;;13.70;99.90;;;;;;5136354;27;20042;-90
2022/09/14 00:22:34;;;;;;;4.22;1.55;;;13.80;99.90;;;;;;5134797;27;20081;-90
2022/09/14 00:25:00;;;;;;;8.02;2.78;;;13.70;99.90;;;;;;5118143;27;20076;-90
2022/09/14 00:27:25;;;;;;;9.20;3.20;;;13.70;99.90;;;;;;5135323;27;20038;-90
2022/09/14 00:29:51;;;;;;;8.20;2.90;;;13.70;99.90;;;;;;5136288;27;20035;-90
2022/09/14 00:32:17;;;;;;;6.20;1.98;;;13.70;99.90;;;;;;5117595;27;20056;-90
2022/09/14 00:34:43;;;;;;;4.70;1.55;;;13.70;99.90;;;;;;5118494;27;20046;-90
2022/09/14 00:37:10;;;;;;;5.63;2.20;;;13.60;99.90;;;;;;5134873;27;20043;-91
2022/09/14 00:39:36;;;;;;;9.93;3.15;;;13.60;99.90;;;;;;5135307;27;20053;-90
2022/09/14 00:42:04;;;;;;;9.02;3.83;;;13.60;99.90;;;;;;5118045;27;20515;-90
2022/09/14 00:44:29;;;;;;;8.80;3.45;;;13.70;99.90;;;;;;5118455;27;20042;-91
2022/09/14 00:46:59;;;;;;;5.82;2.20;;;13.70;99.90;;;;;;5118851;27;20049;-90
2022/09/14 00:49:33;;;;;;;4.88;1.40;;;13.70;99.90;;;;;;5118707;27;20031;-91
2022/09/14 00:52:33;;;;;;;5.30;1.67;;;13.60;99.90;;;;;;5135326;27;20077;-90
2022/09/14 00:55:06;;;;;;;5.15;1.92;;;13.50;99.90;;;;;;5130399;27;20154;-90
2022/09/14 00:57:45;;;;;;;6.85;2.40;;;13.50;99.90;;;;;;5135562;27;20042;-90
2022/09/14 01:00:14;;;;;;;7.28;2.70;;;13.60;99.90;;;;;;5118043;27;20042;-90
2022/09/14 01:02:40;;;;;;;6.15;1.83;;;13.60;99.90;;;;;;5134127;27;20070;-90
2022/09/14 01:05:07;;;;;;;4.88;1.65;;;13.50;99.90;;;;;;5118314;27;20074;-90
2022/09/14 01:07:57;;;;;;;10.95;3.25;;;13.50;99.90;;;;;;5135513;27;20042;-90
2022/09/14 01:10:32;;;;;;;5.13;1.60;;;13.60;99.90;;;;;;5135421;27;20073;-90
2022/09/14 01:13:06;;;;;;;8.50;3.28;;;13.50;99.90;;;;;;5135192;27;20445;-90
2022/09/14 01:15:48;;;;;;;8.25;2.35;;;13.50;99.90;;;;;;5118077;27;20042;-90
2022/09/14 01:18:26;;;;;;;6.97;1.95;;;13.50;99.90;;;;;;5135401;27;20077;-90
2022/09/14 01:21:09;;;;;;;8.40;3.40;;;13.50;99.90;;;;;;5135162;27;20446;-90
2022/09/14 01:24:10;;;;;;;9.10;3.47;;;13.50;99.90;;;;;;5134989;27;20038;-90
2022/09/14 01:26:58;;;;;;;8.10;2.85;;;13.60;99.90;;;;;;5135086;27;20043;-90
2022/09/14 01:29:36;;;;;;;7.45;2.50;;;13.50;99.90;;;;;;5117834;27;20042;-90
2022/09/14 01:32:18;;;;;;;8.20;2.90;;;13.40;99.90;;;;;;5134204;27;20058;-89
2022/09/14 01:34:53;;;;;;;5.97;2.13;;;13.40;99.90;;;;;;5135073;27;20041;-90
2022/09/14 01:37:32;;;;;;;6.80;1.95;;;13.40;99.90;;;;;;5120218;27;20118;-91
2022/09/14 01:40:04;;;;;;;9.20;2.50;;;13.40;99.90;;;;;;5096435;27;20400;-90
2022/09/14 01:42:31;;;;;;;4.35;1.52;;;13.40;99.90;;;;;;5096930;27;20039;-90
2022/09/14 01:45:00;;;;;;;6.68;1.70;;;13.30;99.90;;;;;;5097198;27;20088;-90
2022/09/14 01:47:30;;;;;;;6.80;2.50;;;13.20;99.90;;;;;;5114268;27;20042;-90
2022/09/14 01:50:02;;;;;;;8.82;2.80;;;13.30;99.90;;;;;;5114158;27;20084;-90
2022/09/14 01:52:36;;;;;;;7.00;1.88;;;13.30;99.90;;;;;;5114217;28;20043;-90
2022/09/14 01:55:13;;;;;;;8.10;3.13;;;13.30;99.90;;;;;;5114068;28;20136;-90
2022/09/14 01:57:44;;;;;;;4.15;1.80;;;13.30;99.90;;;;;;5114249;28;20074;-90
2022/09/14 02:00:15;;;;;;;3.03;1.13;;;13.30;99.90;;;;;;5114466;28;20061;-91
2022/09/14 02:03:16;;;;;;;5.13;2.00;;;13.10;99.90;;;;;;5096716;28;20040;-90
2022/09/14 02:05:52;;;;;;;4.78;1.65;;;13.20;99.90;;;;;;5091908;28;20074;-90
2022/09/14 02:08:18;;;;;;;1.58;0.80;;;13.00;99.90;;;;;;5114449;28;20183;-90
2022/09/14 02:10:43;;;;;;;3.45;1.02;;;13.00;99.90;;;;;;5114271;28;20516;-90
2022/09/14 02:13:09;;;;;;;3.60;1.33;;;12.90;99.90;;;;;;5114323;27;20039;-90
2022/09/14 02:15:36;;;;;;;6.18;1.67;;;12.90;99.90;;;;;;5118153;27;20035;-90
2022/09/14 02:18:02;;;;;;;4.63;1.20;;;12.90;99.90;;;;;;5118119;27;20050;-90
2022/09/14 02:20:38;;;;;;;3.17;1.20;;;12.90;99.90;;;;;;5118443;27;20031;-90
2022/09/14 02:23:05;;;;;;;3.58;1.60;;;12.80;99.90;;;;;;5117748;27;20039;-91
2022/09/14 02:25:31;;;;;;;4.07;1.80;;;12.90;99.90;;;;;;5118081;27;20125;-90
2022/09/14 02:27:57;;;;;;;3.03;1.30;;;13.00;99.90;;;;;;5117833;27;20035;-90
2022/09/14 02:30:23;;;;;;;14.77;2.60;;;12.90;99.90;;;;;;5100707;27;20045;-90
2022/09/14 02:33:13;;;;;;;5.35;1.40;;;12.90;99.90;;;;;;5117615;27;20043;-90
2022/09/14 02:35:55;;;;;;;3.95;1.27;;;12.90;99.90;;;;;;5136254;27;20043;-90
2022/09/14 02:38:20;;;;;;;7.73;1.80;;;12.80;99.90;;;;;;5117974;27;20074;-90
2022/09/14 02:40:56;;;;;;;6.05;2.70;;;12.80;99.90;;;;;;5117157;27;20082;-90
2022/09/14 02:43:40;;;;;;;3.95;1.45;;;12.80;99.90;;;;;;5117920;27;20035;-90
2022/09/14 02:46:15;;;;;;;3.97;1.70;;;12.80;99.90;;;;;;5117514;27;20118;-90
2022/09/14 02:48:57;;;;;;;7.70;2.90;;;12.70;99.90;;;;;;5100705;27;20062;-90
2022/09/14 02:51:38;;;;;;;9.55;2.13;;;12.80;99.90;;;;;;5117092;27;20047;-90
2022/09/14 02:54:07;;;;;;;7.78;3.20;;;12.80;99.90;;;;;;5117548;27;20112;-90
2022/09/14 02:56:34;;;;;;;9.40;4.43;;;12.80;99.90;;;;;;5117586;27;20039;-91
2022/09/14 02:59:00;;;;;;;8.63;3.55;;;12.80;99.90;;;;;;5117196;27;20043;-90
2022/09/14 03:01:26;;;;;;;7.68;2.65;;;12.90;99.90;;;;;;5116998;27;20510;-90
2022/09/14 03:03:52;;;;;;;6.95;3.15;;;12.90;99.90;;;;;;5117411;27;20119;-90
2022/09/14 03:06:18;;;;;;;8.95;3.83;;;12.80;99.90;;;;;;5117106;27;20665;-90
2022/09/14 03:08:44;;;;;;;7.07;2.78;;;12.90;99.90;;;;;;5117036;27;20441;-91
2022/09/14 03:11:10;;;;;;;8.30;4.07;;;12.90;99.90;;;;;;5116926;27;20449;-91
2022/09/14 03:13:36;;;;;;;7.45;2.70;;;12.90;99.90;;;;;;5100340;27;20040;-90
2022/09/14 03:16:10;;;;;;;8.15;2.67;;;12.90;99.90;;;;;;5117145;27;20038;-90
2022/09/14 03:18:36;;;;;;;8.68;3.70;;;12.90;99.90;;;;;;5117355;27;20400;-91
2022/09/14 03:21:14;;;;;;;6.78;2.47;;;12.90;99.90;;;;;;5099735;27;20042;-90
2022/09/14 03:23:49;;;;;;;7.03;3.67;;;12.90;99.90;;;;;;5116659;27;20387;-90
2022/09/14 03:26:20;;;;;;;9.73;2.92;;;13.00;99.90;;;;;;5115703;27;20035;-90
2022/09/14 03:28:55;;;;;;;7.85;2.97;;;12.90;99.90;;;;;;5099774;27;20035;-90
2022/09/14 03:31:21;;;;;;;9.13;2.85;;;12.90;99.90;;;;;;5099857;27;20043;-90
2022/09/14 03:33:50;;;;;;;8.20;3.67;;;12.90;99.90;;;;;;5099650;27;20039;-90
2022/09/14 03:36:17;;;;;;;9.35;3.08;;;12.90;99.90;;;;;;5099322;27;20042;-90
2022/09/14 03:38:44;;;;;;;10.75;3.90;;;13.00;99.90;;;;;;5099641;27;20530;-90
2022/09/14 03:41:11;;;;;;;9.00;4.53;;;13.00;99.90;;;;;;5116016;27;20043;-90
2022/09/14 03:43:36;;;;;;;8.60;4.20;;;13.00;99.90;;;;;;5116579;27;20031;-90
2022/09/14 03:46:11;;;;;;;10.52;2.97;;;13.10;99.90;;;;;;5116293;27;20114;-90
2022/09/14 03:48:37;;;;;;;10.20;4.57;;;13.00;99.90;;;;;;5099211;27;20500;-91
2022/09/14 03:51:04;;;;;;;8.18;3.95;;;13.10;99.90;;;;;;5116160;27;20039;-89
2022/09/14 03:53:30;;;;;;;7.75;3.22;;;13.10;99.90;;;;;;5099425;27;20057;-90
2022/09/14 03:55:57;;;;;;;8.50;4.03;;;13.00;99.90;;;;;;5116197;27;20492;-90
2022/09/14 03:58:23;;;;;;;8.98;3.92;;;13.10;99.90;;;;;;5116133;27;20031;-90
2022/09/14 04:00:48;;;;;;;9.07;3.90;;;13.10;99.90;;;;;;5098853;27;20103;-90
2022/09/14 04:03:14;;;;;;;8.45;4.25;;;13.10;99.90;;;;;;5098949;27;20552;-90
2022/09/14 04:05:40;;;;;;;5.68;2.42;;;13.10;99.90;;;;;;5116242;27;20113;-90
2022/09/14 04:08:05;;;;;;;7.53;3.00;;;13.10;99.90;;;;;;5116113;27;20419;-90
2022/09/14 04:10:31;;;;;;;5.60;2.00;;;13.00;99.90;;;;;;5116254;27;20039;-90
2022/09/14 04:12:57;;;;;;;8.57;3.67;;;13.00;99.90;;;;;;5115611;27;20492;-90
2022/09/14 04:15:23;;;;;;;6.15;2.50;;;13.00;99.90;;;;;;5116190;27;20106;-90
2022/09/14 04:17:48;;;;;;;6.45;3.15;;;12.90;99.90;;;;;;5098756;27;20464;-90
2022/09/14 04:20:14;;;;;;;9.07;2.95;;;12.90;99.90;;;;;;5099270;27;20450;-90
2022/09/14 04:22:40;;;;;;;6.28;2.80;;;12.90;99.90;;;;;;5098166;27;20449;-90
2022/09/14 04:25:06;;;;;;;4.95;1.80;;;12.90;99.90;;;;;;5115747;27;20729;-90
2022/09/14 04:27:32;;;;;;;3.67;1.42;;;13.00;99.90;;;;;;5115423;27;20035;-91
2022/09/14 04:29:57;;;;;;;3.22;1.73;;;12.90;99.90;;;;;;5114728;27;20035;-90
2022/09/14 04:32:23;;;;;;;3.05;1.23;;;12.90;99.90;;;;;;5115311;27;20043;-90
2022/09/14 04:34:48;;;;;;;3.78;1.73;;;12.90;99.90;;;;;;5098324;27;20031;-90
2022/09/14 04:37:14;;;;;;;3.80;1.60;;;12.90;99.90;;;;;;5114688;27;20091;-90
2022/09/14 04:39:41;;;;;;;4.30;1.20;;;12.90;99.90;;;;;;5114740;27;20043;-91
2022/09/14 04:42:07;;;;;;;4.18;1.23;;;12.80;99.90;;;;;;5098351;27;20512;-91
2022/09/14 04:44:33;;;;;;;7.03;1.98;;;12.80;99.90;;;;;;5115342;27;20031;-90
2022/09/14 04:46:58;;;;;;;4.70;2.00;;;12.80;99.90;;;;;;5115276;27;20058;-91
2022/09/14 04:49:24;;;;;;;5.45;2.03;;;12.90;99.90;;;;;;5115149;27;20042;-91
2022/09/14 04:51:49;;;;;;;9.27;3.65;;;12.90;99.90;;;;;;5114531;27;20031;-90
2022/09/14 04:54:16;;;;;;;6.50;2.90;;;12.90;99.90;;;;;;5115602;27;20180;-90
2022/09/14 04:56:43;;;;;;;8.48;2.42;;;13.00;99.90;;;;;;5097720;27;20172;-91
2022/09/14 04:59:09;;;;;;;10.43;4.25;;;12.90;99.90;;;;;;5114512;27;20058;-90
2022/09/14 05:01:37;;;;;;;5.45;2.47;;;12.90;99.90;;;;;;5097356;27;20530;-90
2022/09/14 05:04:04;;;;;;;8.68;3.10;;;12.90;99.90;;;;;;5115048;27;20074;-90
2022/09/14 05:06:32;;;;;;;5.28;2.33;;;13.00;99.90;;;;;;5114547;27;20041;-90
2022/09/14 05:08:59;;;;;;;8.65;2.70;;;13.00;99.90;;;;;;5097690;27;20035;-91
2022/09/14 05:11:28;;;;;;;8.10;3.83;;;12.90;99.90;;;;;;5114660;27;20043;-90
2022/09/14 05:13:55;;;;;;;8.82;3.42;;;13.00;99.90;;;;;;5116997;27;20039;-90
2022/09/14 05:16:26;;;;;;;8.38;3.20;;;13.00;99.90;;;;;;5122749;27;20043;-91
2022/09/14 05:18:55;;;;;;;8.48;4.50;;;13.00;99.90;;;;;;5114964;27;20129;-91
2022/09/14 05:21:22;;;;;;;9.18;3.03;;;13.00;99.90;;;;;;5114369;27;20412;-91
2022/09/14 05:23:57;;;;;;;10.18;4.10;;;13.00;99.90;;;;;;5114637;27;20051;-90
2022/09/14 05:26:24;;;;;;;7.93;3.28;;;13.10;99.90;;;;;;5113772;27;20071;-90
2022/09/14 05:28:52;;;;;;;9.98;3.97;;;13.10;99.90;;;;;;5097686;27;20035;-91
2022/09/14 05:31:18;;;;;;;7.10;3.00;;;13.10;99.90;;;;;;5113405;27;20049;-90
2022/09/14 05:33:43;;;;;;;9.13;4.10;;;13.10;99.90;;;;;;5114122;27;20043;-90
2022/09/14 05:36:09;;;;;;;7.28;2.88;;;13.20;99.90;;;;;;5114211;27;20094;-90
2022/09/14 05:38:37;;;;;;;7.80;2.85;;;13.20;99.90;;;;;;5132784;27;20035;-90
2022/09/14 05:41:04;;;;;;;9.43;3.90;;;13.10;99.90;;;;;;5113884;27;20040;-91
2022/09/14 05:43:30;;;;;;;8.70;3.05;;;13.20;99.90;;;;;;5114192;27;20035;-90
2022/09/14 05:45:59;;;;;;;8.75;4.05;;;13.20;99.90;;;;;;5114129;28;20028;-90
2022/09/14 05:48:25;;;;;;;8.15;4.07;;;13.30;99.90;;;;;;5113783;27;20506;-90
2022/09/14 05:51:00;;;;;;;8.73;3.17;;;13.30;99.90;;;;;;5096942;28;20541;-90
2022/09/14 05:53:26;;;;;;;10.63;4.70;;;13.30;99.90;;;;;;5114384;28;20058;-90
2022/09/14 05:56:06;;;;;;;8.38;2.60;;;13.30;99.90;;;;;;5125948;28;20500;-90
2022/09/14 05:58:32;;;;;;;10.57;4.70;;;13.20;99.90;;;;;;5097193;28;20040;-90
2022/09/14 06:00:57;;;;;;;15.65;4.18;;;13.30;99.90;;;;;;5096688;28;20110;-90
2022/09/14 06:03:24;;;;;;;12.00;4.50;;;13.30;99.90;;;;;;5113911;28;20074;-90
2022/09/14 06:05:49;;;;;;;9.15;3.33;;;13.30;99.90;;;;;;5097012;28;20035;-90
2022/09/14 06:08:15;;;;;;;9.90;4.90;;;13.30;99.90;;;;;;5131122;28;20041;-91
2022/09/14 06:10:41;;;;;;;7.70;3.10;;;13.30;99.90;;;;;;5131343;28;20035;-90
2022/09/14 06:13:06;;;;;;;9.27;4.47;;;13.30;99.90;;;;;;5130884;28;20523;-90
2022/09/14 06:15:33;;;;;;;8.75;5.05;;;13.30;99.90;;;;;;5131117;28;20517;-91
2022/09/14 06:17:59;;;;;;;7.53;3.15;;;13.40;99.90;;;;;;5113360;28;20039;-90
2022/09/14 06:20:24;;;;;;;6.28;2.92;;;13.40;99.90;;;;;;5131379;28;20035;-90
2022/09/14 06:22:50;;;;;;;7.40;4.00;;;13.40;99.90;;;;;;5130298;28;20046;-90
2022/09/14 06:25:15;;;;;;;9.23;3.40;;;13.40;99.90;;;;;;5113950;28;20043;-91
2022/09/14 06:27:41;;;;;;;9.27;4.07;;;13.40;99.90;;;;;;5096776;28;20039;-90
2022/09/14 06:30:07;;;;;;;7.32;3.80;;;13.50;99.90;;;;;;5096917;28;20035;-90
2022/09/14 06:32:33;;;;;;;8.55;3.50;;;13.50;99.90;;;;;;5130507;28;20492;-90
2022/09/14 06:34:58;;;;;;;7.35;4.10;;;13.50;99.90;;;;;;5130153;28;20043;-91
2022/09/14 06:37:24;;;;;;;8.93;3.47;;;13.60;99.90;;;;;;5096707;28;20060;-90
2022/09/14 06:39:49;;;;;;;9.13;3.45;;;13.60;99.90;;;;;;5130613;28;20099;-90
2022/09/14 06:42:15;;;;;;;8.95;4.28;;;13.60;99.90;;;;;;5096188;28;20039;-90
2022/09/14 06:44:41;;;;;;;9.25;3.40;;;13.60;99.90;;;;;;5130870;28;20035;-90
2022/09/14 06:47:06;;;;;;;9.45;4.47;;;13.60;99.90;;;;;;5096672;28;20031;-90
2022/09/14 06:49:32;;;;;;;7.25;3.42;;;13.70;99.90;;;;;;5130693;28;20035;-90
2022/09/14 06:51:59;;;;;;;8.80;4.63;;;13.70;99.90;;;;;;5130579;28;20041;-90
2022/09/14 06:54:25;;;;;;;8.85;3.97;;;13.80;99.90;;;;;;5130595;28;20508;-90
2022/09/14 06:56:51;;;;;;;7.88;3.92;;;13.70;99.90;;;;;;5096092;28;20478;-91
2022/09/14 06:59:18;;;;;;;8.65;4.82;;;13.80;99.90;;;;;;5130814;27;20134;-90
2022/09/14 07:01:44;;;;;;;9.90;5.05;;;13.80;99.90;;;;;;5132906;27;20064;-90
2022/09/14 07:04:10;;;;;;;9.82;3.75;;;13.90;99.90;;;;;;5133685;27;20081;-90
2022/09/14 07:06:49;;;;;;;9.77;5.13;;;13.90;99.90;;;;;;5100048;27;20035;-91
2022/09/14 07:09:16;;;;;;;7.45;3.95;;;14.00;99.90;;;;;;5117214;27;20575;-90
2022/09/14 07:11:42;;;;;;;10.65;5.20;;;14.00;99.90;;;;;;5099522;27;20103;-90
2022/09/14 07:14:08;;;;;;;10.00;4.15;;;14.10;99.90;;;;;;5117129;27;20039;-90
2022/09/14 07:16:35;;;;;;;12.23;5.25;;;14.10;99.90;;;;;;5099958;27;20050;-90
2022/09/14 07:19:03;;;;;;;9.60;4.00;;;14.10;99.90;;;;;;5100024;27;20062;-91
2022/09/14 07:21:29;;;;;;;10.40;5.28;;;14.20;99.90;;;;;;5133765;27;20054;-91
2022/09/14 07:23:55;;;;;;;11.05;5.30;;;14.20;99.90;;;;;;5099895;27;20122;-91
2022/09/14 07:26:30;;;;;;;9.23;5.22;;;14.30;99.90;;;;;;5133907;27;20470;-91
2022/09/14 07:29:02;;;;;;;11.43;5.32;;;14.40;99.90;;;;;;5134056;27;20144;-90
2022/09/14 07:31:31;;;;;;;10.77;3.58;;;14.40;99.90;;;;;;5133708;27;20035;-90
2022/09/14 07:33:58;;;;;;;9.80;4.65;;;14.50;99.90;;;;;;5133233;27;20085;-91
2022/09/14 07:36:26;;;;;;;9.75;3.72;;;14.60;99.90;;;;;;5133691;27;20088;-90
2022/09/14 07:38:52;;;;;;;9.93;4.80;;;14.60;99.90;;;;;;5100028;27;20151;-90
2022/09/14 07:41:19;;;;;;;10.27;4.40;;;14.70;99.90;;;;;;5098979;27;20588;-90
2022/09/14 07:43:47;;;;;;;8.48;4.43;;;14.80;99.90;;;;;;5116674;27;20043;-91
2022/09/14 07:46:13;;;;;;;9.27;4.70;;;14.90;99.90;;;;;;5116631;27;20122;-90
2022/09/14 07:48:38;;;;;;;8.95;4.38;;;14.90;99.90;;;;;;5099163;27;20078;-91
2022/09/14 07:51:06;;;;;;;8.27;4.45;;;15.00;99.90;;;;;;5133134;27;20186;-91
2022/09/14 07:53:38;;;;;;;10.60;4.60;;;15.20;99.90;;;;;;5133624;27;20047;-90
2022/09/14 07:56:05;;;;;;;10.25;3.75;;;15.20;99.90;;;;;;5133582;27;20039;-91
2022/09/14 07:58:30;;;;;;;9.32;4.15;;;15.30;99.90;;;;;;5133494;27;20388;-90
2022/09/14 08:01:01;;;;;;;8.82;3.60;;;15.40;99.90;;;;;;5133179;27;20031;-90
2022/09/14 08:03:28;;;;;;;10.13;3.70;;;15.40;99.90;;;;;;5133345;27;20043;-90
2022/09/14 08:06:02;;;;;;;8.13;3.33;;;15.50;99.90;;;;;;5133276;27;21267;-91
2022/09/14 08:08:34;;;;;;;10.60;3.67;;;15.70;99.90;;;;;;5116198;27;20046;-90
2022/09/14 08:11:30;;;;;;;8.30;2.60;;;15.80;99.90;;;;;;5132611;27;20049;-90
2022/09/14 08:13:56;;;;;;;7.47;2.53;;;15.90;99.90;;;;;;5107088;27;20081;-91
2022/09/14 08:16:23;;;;;;;10.07;3.10;;;16.00;99.90;;;;;;5132675;27;20047;-89
2022/09/14 08:19:02;;;;;;;10.95;3.13;;;16.10;99.90;;;;;;5133078;27;20080;-90
2022/09/14 08:21:30;;;;;;;9.18;2.47;;;16.20;99.90;;;;;;5132530;27;20039;-90
2022/09/14 08:23:57;;;;;;;8.70;2.63;;;16.30;99.90;;;;;;5132741;27;20035;-91
2022/09/14 08:26:26;;;;;;;9.68;3.20;;;16.40;99.90;;;;;;5132731;27;20066;-91
2022/09/14 08:28:52;;;;;;;8.85;2.38;;;16.50;99.90;;;;;;5132973;27;20675;-90
2022/09/14 08:31:19;;;;;;;9.50;2.58;;;16.60;99.90;;;;;;5097904;27;20035;-90
2022/09/14 08:33:49;;;;;;;7.65;1.80;;;16.70;99.90;;;;;;5132666;27;20126;-90
2022/09/14 08:36:18;;;;;;;9.52;1.90;;;16.80;99.90;;;;;;5098466;27;20039;-90
2022/09/14 08:38:43;;;;;;;7.60;1.90;;;16.80;99.90;;;;;;5132908;27;20475;-90
2022/09/14 08:41:27;;;;;;;8.57;1.70;;;16.90;99.90;;;;;;5114782;27;20075;-91
2022/09/14 08:43:54;;;;;;;8.90;1.80;;;16.90;99.90;;;;;;5132237;27;20039;-91
2022/09/14 08:46:32;;;;;;;7.63;1.42;;;16.90;99.90;;;;;;5098161;27;20039;-91
2022/09/14 08:49:00;;;;;;;7.43;1.30;;;17.00;99.90;;;;;;5132231;27;20140;-90
2022/09/14 08:51:26;;;;;;;7.40;1.27;;;17.00;99.90;;;;;;5098113;27;20438;-90
2022/09/14 08:53:55;;;;;;;6.43;1.75;;;17.00;99.90;;;;;;5131553;27;20042;-90
2022/09/14 08:56:25;;;;;;;6.50;1.83;;;17.10;99.90;;;;;;5122552;27;20039;-91
2022/09/14 08:59:08;;;;;;;6.03;1.50;;;17.10;99.90;;;;;;5097397;27;20043;-91
2022/09/14 09:01:39;;;;;;;7.88;1.50;;;17.20;99.90;;;;;;5118788;27;20035;-92
2022/09/14 09:04:10;;;;;;;6.57;1.20;;;17.20;99.90;;;;;;5130352;27;20122;-91
2022/09/14 09:06:51;;;;;;;5.47;1.27;;;17.30;99.90;;;;;;5097649;27;20035;-90
2022/09/14 09:09:48;;;;;;;6.85;1.60;;;17.40;99.90;;;;;;5098221;27;20035;-90
2022/09/14 09:12:18;;;;;;;6.75;1.15;;;17.50;99.90;;;;;;5097566;27;20050;-90
2022/09/14 09:14:54;;;;;;;7.75;1.60;;;17.60;99.90;;;;;;5132237;27;20047;-90
2022/09/14 09:17:28;;;;;;;6.78;1.60;;;17.70;99.90;;;;;;5131724;27;20134;-90
2022/09/14 09:19:58;;;;;;;9.13;3.10;;;17.80;99.90;;;;;;5098035;27;20122;-90
2022/09/14 09:22:28;;;;;;;11.40;3.22;;;17.90;99.90;;;;;;5097043;27;20043;-91
2022/09/14 09:24:54;;;;;;;6.35;1.30;;;18.00;99.90;;;;;;5097578;27;20516;-91
2022/09/14 09:27:22;;;;;;;4.35;0.80;;;18.00;99.90;;;;;;5131929;27;20043;-91
2022/09/14 09:29:47;;;;;;;9.18;1.10;;;18.10;99.90;;;;;;5131882;27;20035;-90
2022/09/14 09:32:20;;;;;;;6.05;1.00;;;18.10;99.90;;;;;;5129675;27;20518;-90
2022/09/14 09:34:46;;;;;;;5.40;0.93;;;18.20;99.90;;;;;;5096852;27;20075;-90
2022/09/14 09:37:18;;;;;;;5.15;0.95;;;18.20;99.90;;;;;;5096708;27;20479;-90
2022/09/14 09:39:44;;;;;;;5.63;0.80;;;18.30;99.90;;;;;;5114026;27;20093;-90
2022/09/14 09:42:21;;;;;;;4.38;0.90;;;18.40;99.90;;;;;;5096788;27;20043;-90
2022/09/14 09:44:58;;;;;;;7.20;1.08;;;18.40;99.90;;;;;;5114091;27;20537;-90
2022/09/14 09:47:37;;;;;;;6.35;1.02;;;18.50;99.90;;;;;;5097221;28;20035;-88
2022/09/14 09:50:17;;;;;;;7.10;1.42;;;18.50;99.90;;;;;;5098282;28;20039;-89
2022/09/14 09:52:52;;;;;;;6.60;1.02;;;18.50;99.90;;;;;;5094384;28;20092;-89
2022/09/14 09:55:20;;;;;;;6.07;1.00;;;18.60;99.90;;;;;;5111963;28;20039;-90
2022/09/14 09:57:46;;;;;;;4.07;0.90;;;18.60;99.90;;;;;;5111613;28;20079;-89
2022/09/14 10:00:22;;;;;;;4.30;0.80;;;18.60;99.90;;;;;;5094728;28;20714;-89
2022/09/14 10:02:48;;;;;;;4.60;0.82;;;18.70;99.90;;;;;;5094363;28;20059;-89
2022/09/14 10:05:21;;;;;;;5.30;0.90;;;18.80;99.90;;;;;;5095787;28;20035;-89
2022/09/14 10:07:59;;;;;;;4.93;0.95;;;18.80;99.90;;;;;;5113631;28;20031;-89
2022/09/14 10:10:46;;;;;;;7.28;1.20;;;18.80;99.90;;;;;;5113903;28;20039;-89
2022/09/14 10:13:28;;;;;;;5.80;1.08;;;18.90;99.90;;;;;;5113677;28;20500;-89
2022/09/14 10:16:22;;;;;;;7.25;1.00;;;18.90;99.90;;;;;;5113681;28;20035;-90
2022/09/14 10:18:50;;;;;;;5.15;1.20;;;18.90;99.90;;;;;;5096683;28;20039;-89
2022/09/14 10:21:18;;;;;;;4.18;0.90;;;18.90;99.90;;;;;;5095889;28;20040;-89
2022/09/14 10:23:44;;;;;;;5.30;1.13;;;19.00;99.90;;;;;;5113478;28;20092;-89
2022/09/14 10:26:12;;;;;;;5.70;0.90;;;19.10;99.90;;;;;;5096175;28;20075;-89
2022/09/14 10:28:46;;;;;;;7.00;1.20;;;19.10;99.90;;;;;;5112980;28;20035;-88
2022/09/14 10:31:16;;;;;;;5.65;1.02;;;19.20;99.90;;;;;;5112654;28;20118;-89
2022/09/14 10:33:46;;;;;;;4.25;1.00;;;19.20;99.90;;;;;;5095733;28;20039;-89
2022/09/14 10:36:18;;;;;;;7.60;1.02;;;19.30;99.90;;;;;;5099931;27;20035;-89
2022/09/14 10:38:58;;;;;;;4.87;0.90;;;19.30;99.90;;;;;;5117032;27;20499;-89
2022/09/14 10:41:36;;;;;;;5.75;0.88;;;19.30;99.90;;;;;;5116691;27;20555;-90
2022/09/14 10:44:39;;;;;;;7.45;1.00;;;19.40;99.90;;;;;;5122788;27;20518;-89
2022/09/14 10:47:23;;;;;;;6.07;1.20;;;19.50;99.90;;;;;;5116901;27;20511;-90
2022/09/14 10:50:04;;;;;;;4.22;1.00;;;19.50;99.90;;;;;;5116464;27;20035;-90
2022/09/14 10:52:43;;;;;;;4.55;1.00;;;19.50;99.90;;;;;;5099286;27;20039;-90
2022/09/14 10:55:47;;;;;;;6.13;1.10;;;19.60;99.90;;;;;;5116777;27;20527;-91
2022/09/14 10:58:26;;;;;;;5.35;1.23;;;19.70;99.90;;;;;;5116130;27;20097;-90
2022/09/14 11:01:09;;;;;;;7.03;1.05;;;19.70;99.90;;;;;;5115166;27;20039;-90
2022/09/14 11:04:17;;;;;;;5.15;1.10;;;19.70;99.90;;;;;;5135856;27;20118;-90
2022/09/14 11:06:48;;;;;;;6.45;1.10;;;19.80;99.90;;;;;;5135509;27;20061;-89
2022/09/14 11:09:36;;;;;;;4.35;1.00;;;19.80;99.90;;;;;;5117363;27;20092;-89
2022/09/14 11:12:23;;;;;;;6.53;1.27;;;19.90;99.90;;;;;;5116418;27;20431;-89
2022/09/14 11:15:21;;;;;;;3.63;1.00;;;19.90;99.90;;;;;;5117111;27;20036;-90
2022/09/14 11:18:17;;;;;;;5.93;0.93;;;20.00;99.90;;;;;;5116922;27;20039;-90
2022/09/14 11:20:59;;;;;;;6.70;1.20;;;20.10;99.90;;;;;;5115822;27;20547;-90
2022/09/14 11:23:40;;;;;;;8.13;1.27;;;20.30;99.90;;;;;;5116854;27;20065;-90
2022/09/14 11:26:17;;;;;;;5.47;1.30;;;20.50;99.90;;;;;;5100047;27;20513;-90
2022/09/14 11:28:51;;;;;;;5.15;1.20;;;20.60;99.90;;;;;;5100213;27;20146;-90
2022/09/14 11:31:35;;;;;;;4.85;1.20;;;20.80;99.90;;;;;;5099597;27;20102;-90
2022/09/14 11:34:21;;;;;;;3.35;1.00;;;21.00;99.90;;;;;;5116748;27;20043;-90
2022/09/14 11:36:55;;;;;;;4.47;1.00;;;21.00;99.90;;;;;;5116994;27;20053;-90
2022/09/14 11:39:44;;;;;;;5.43;1.00;;;21.00;99.90;;;;;;5116776;27;20407;-90
2022/09/14 11:42:33;;;;;;;5.88;1.00;;;21.10;99.90;;;;;;5116580;27;20040;-90
2022/09/14 11:45:12;;;;;;;4.60;0.80;;;21.10;99.90;;;;;;5116578;27;20035;-90
2022/09/14 11:47:44;;;;;;;7.10;1.30;;;21.10;99.90;;;;;;5116052;27;20534;-90
2022/09/14 11:50:21;;;;;;;4.57;0.90;;;21.10;99.90;;;;;;5099576;27;20126;-90
2022/09/14 11:53:10;;;;;;;5.45;1.00;;;21.10;99.90;;;;;;5099104;27;20039;-90
2022/09/14 11:55:40;;;;;;;7.53;1.40;;;21.20;99.90;;;;;;5098641;27;20416;-90
2022/09/14 11:58:13;;;;;;;5.63;1.13;;;21.30;97.50;;;;;;5099853;27;20059;-90
2022/09/14 12:00:57;;;;;;;6.47;1.30;;;21.40;99.20;;;;;;5116541;27;20392;-90
2022/09/14 12:03:45;;;;;;;5.10;1.05;;;21.50;97.80;;;;;;5134708;27;20039;-89
2022/09/14 12:06:29;;;;;;;6.20;1.13;;;21.70;97.80;;;;;;5116071;27;20050;-90
2022/09/14 12:09:19;;;;;;;6.68;1.10;;;21.90;99.60;;;;;;5116117;27;20043;-90
2022/09/14 12:11:57;;;;;;;5.85;1.10;;;21.90;96.50;;;;;;5101617;27;20423;-90
2022/09/14 12:14:22;;;;;;;4.22;1.00;;;21.80;94.90;;;;;;5098522;27;20039;-90
2022/09/14 12:17:05;;;;;;;5.65;1.13;;;22.00;93.60;;;;;;5115762;27;20043;-90
2022/09/14 12:19:31;;;;;;;5.85;1.20;;;22.10;93.40;;;;;;5098635;27;20039;-90
2022/09/14 12:22:17;;;;;;;4.80;1.00;;;22.10;92.30;;;;;;5114814;27;20047;-90
2022/09/14 12:24:43;;;;;;;3.83;1.00;;;22.30;91.90;;;;;;5114997;27;20055;-90
2022/09/14 12:27:21;;;;;;;3.38;0.80;;;22.40;90.20;;;;;;5114724;27;20050;-91
2022/09/14 12:29:46;;;;;;;5.85;1.08;;;22.50;87.60;;;;;;5098431;27;20472;-90
2022/09/14 12:32:36;;;;;;;4.70;0.90;;;22.50;87.40;;;;;;5098699;27;20127;-90
2022/09/14 12:35:33;;;;;;;4.25;0.98;;;22.40;87.00;;;;;;5098178;27;20035;-90
2022/09/14 12:38:19;;;;;;;3.55;0.90;;;22.40;90.00;;;;;;5115345;27;20039;-90
2022/09/14 12:40:45;;;;;;;5.60;1.17;;;22.40;94.20;;;;;;5114759;27;20051;-90
2022/09/14 12:43:36;;;;;;;6.78;1.13;;;22.40;94.70;;;;;;5098099;27;20416;-90
2022/09/14 12:46:33;;;;;;;6.10;1.23;;;22.50;95.00;;;;;;5114921;27;20106;-90
2022/09/14 12:49:02;;;;;;;4.72;1.10;;;22.40;93.80;;;;;;5113791;27;20047;-90
2022/09/14 12:51:28;;;;;;;3.20;1.00;;;22.40;93.40;;;;;;5098046;27;20035;-90
2022/09/14 12:54:08;;;;;;;6.28;1.27;;;22.40;93.80;;;;;;5115301;27;20099;-91
2022/09/14 12:56:41;;;;;;;6.28;1.27;;;22.30;92.20;;;;;;5097811;27;20524;-91
2022/09/14 12:59:35;;;;;;;6.70;1.23;;;22.30;93.40;;;;;;5096646;27;20039;-90
2022/09/14 13:02:42;;;;;;;4.80;0.93;;;22.40;94.40;;;;;;5097702;27;20036;-90
2022/09/14 13:05:19;;;;;;;7.50;1.10;;;22.50;91.80;;;;;;5115015;27;20039;-90
2022/09/14 13:07:45;;;;;;;6.95;1.60;;;22.70;89.80;;;;;;5114638;27;20154;-91
2022/09/14 13:10:23;;;;;;;4.78;1.10;;;23.00;86.90;;;;;;5114820;27;20041;-90